zondag 24 maart 2019 | Home | Bestenlijsten | Bestenlijsten NL | Calculators | Nieuws | Records | Uitslagen | Videos | Wedstrijden | VZA Ranglijsten | Weer |
 
 
Recent nieuws meer nieuws
21-03: Komende jaren lopen we massaal de 5 km
18-03: KIKA-KWF Run
08-03: Wie leerde de Zeeuwen hardlopen?
28-02: Langzame lopers zijn ook welkom, maar……..?
25-02: 8e Kapellecross was geslaagd hardloopfeest
22-02: Wat eten we?
Wedstrijdagenda meer wedstrijden
zo 24-03: 31e Parelloop Brunssum
za 30-03: 25 km van Hulst
zo 31-03: 14e Venloop
za 06-04: 13e Oosterscheldeloop Goes
zo 07-04: Marathon Rotterdam
wo 10-04: Kika KWF Run Heinkenszand
vr 12-04: 8e Oranjemuidenloop Arnemuiden
za 13-04: 11e Marathon Zeeuws-Vlaanderen Hulst
zo 14-04: Enschede Marathon
za 20-04: Sluitingsprijs SSP Westdorpe
za 27-04: Koningsloop Oostburg
za 27-04: 44e Omloop van Menheerse Ouddorp
zo 28-04: 8e Zwaakse Weel loop Kwadendamme
Recente uitslagen meer uitslagen
za 23-03: 8e Ronde van BRU Bruinisse
zo 17-03: 26e Zwinstedenloop Sluis
za 16-03: Corn Boys Loop Sas van Gent (58)
za 16-03: 52e Massaloop Oostkapelle
zo 10-03: 4e Natuurloop Retranchement
za 09-03: 47e Pannekoekloop Westenschouwen (247)
za 02-03: 30e Kustcross Vlissingen (125)
za 02-03: Scheldesportloop Terneuzen (72)
zo 24-02: 8e Kapellecross Kapelle-Biezelinge (141)
zo 24-02: 3e Natuurloop Cadzand-Bad (48)
za 23-02: Halve Marathon Axel (295)
za 16-02: 25 km Scheldeloop Terneuzen (121)
za 16-02: 14e Zwaarste 10 van Zeeland Westenschouwen (184)
za 09-02: Erpelkappersloop Axel (125)
za 09-02: 25e Grevelingen cross Bruinisse (117)
 
Zoek tenminste met 3 tekens van wedstrijd, datum, plaats of atleet
Jeff Thuy Memorial
Heikant, zaterdag 3 januari 2015 - Organisatie: TC Heikant
12.2 km
PltsNaam
Tijdkm/umin/km
1  Thijs VerbeeckStekene43.01Mse   17.017  3:32
2  Edwin de la RuelleKoewacht43.55M45   16.668  3:36
3  Filip van GoethemSint-Gillis-Waas45.30M40   16.088  3:44
4  Maarten DhollanderStekene45.38M40   16.041  3:44
5  Mark VerhageZaamslag46.27Mse   15.759  3:48
6  Frank van den BrandenSint Jansteen47.33M55   15.394  3:54
7  Erik GoossenTerneuzen47.47M40   15.319  3:55
8  Dennis FlorussenTerneuzen48.03M40   15.234  3:56
9  Martijn KoxWestdorpe48.06Mse   15.218  3:57
10  Marnix HillaertMoerbeke48.29M45   15.098  3:58
11  Marlon RoelsTerneuzen49.07M40   14.903  4:02
12  Angelo DelforgeHulst49.22M40   14.828  4:03
13  Alexander VanwalleghemVeldegem49.28Mse   14.798  4:03
14  Sander van DoornTerneuzen49.50Mse   14.689  4:05
15  Ronny WagenaerMelsele50.06M45   14.611  4:06
16  Michel van den BoschSint Jansteen50.29Mse   14.500  4:08
17  Dennis VlassenroodHulst51.21Mse   14.255  4:13
18  Daan van HoorewegheMechelen51.22Mse   14.250  4:13
19  Rudy van DaeleSint-Niklaas51.50M50   14.122  4:15
20  Eddy SchwegherHulst52.07M40   14.045  4:16
21  Raoul De wildeZele52.20M50   13.987  4:17
22  Karel VerbekeSint-Laureins52.22Mse   13.978  4:18
23  Wim van NieuwenhuizeOudenaarde52.29M40   13.947  4:18
24  Martin NoensKemzeke52.40M45   13.899  4:19
25  Dimitri CuyversStekene52.42Mse   13.890  4:19
26  Peter van den AbeeleKloosterzande52.50M45   13.855  4:20
27  Ronny de SaegherStekene53.07M50   13.781  4:21
28  Alain LippensErtvelde53.16M50   13.742  4:22
29  Nico RosWaarschoot53.47M45   13.610  4:25
30  Arne LippensLovendegem53.50Mse   13.598  4:25
31  Tom van de VoordeHulst54.08M40   13.522  4:26
32  Frank BoerebachHoek54.10M50   13.514  4:26
33  Herman KuijerTerneuzen54.21M50   13.468  4:27
34  Philip BraemVogelwaarde54.34M50   13.415  4:28
35  Coach WaelpietVogelwaarde54.37M40   13.403  4:29
36  Patrick de SutterStekene55.05M50   13.289  4:31
37  Theo RoelsKloosterzande55.10M55   13.269  4:31
38  Cathy PoppeTerneuzen55.20V35   13.229  4:32
39  Rudi de CaluwéSas van Gent55.26M55   13.205  4:33
40  Peter FranckNiel56.27M40   12.967  4:38
41  Evert KuijkTerneuzen56.50M45   12.880  4:40
42  Luc de ConinckEeklo57.02M50   12.835  4:40
43  Rik DhollanderNieuwkerken57.33M60   12.719  4:43
44  Stefan Van DammeTerneuzen57.37Mse   12.705  4:43
45  Stijn Van de WalleZelzate57.43Mse   12.683  4:44
46  Dirk WagenaerStekene57.47M45   12.668  4:44
47  Rudy NeveSint Jansteen58.00M60   12.621  4:45
48  Frans VerwilligenHulst58.02M55   12.613  4:45
49  Luc KusseneersRumst59.03M55   12.396  4:50
50  Wim StrobbeKloosterzande59.07M55   12.382  4:51
51  Sjaak VroonlandLamswaarde59.20M55   12.337  4:52
52  Ferdie de KlerkTerneuzen59.50M65   12.234  4:54
53  Jasper ThijsClinge1.00.18Mse   12.139  4:57
54  Jos van GrembergheKoewacht1.00.38M55   12.073  4:58
55  Leo KayserTerneuzen1.00.45M50   12.049  4:59
56  Lauran van den DriesKloosterzande1.00.47M55   12.043  4:59
57  Monique AllefsHulst1.00.52V45   12.026  4:59
58  Pascal Van HulleMaldegem1.01.29M45   11.906  5:02
59  Nadia BleyenbergNieuw-Namen1.02.00Vse   11.806  5:05
60  Astrid VerhageZuiddorpe1.02.09Vse   11.778  5:06
61  Gerald MonteyneOosteeklo1.02.12M45   11.768  5:06
62  Marc WelvaartOosteeklo1.02.14M50   11.762  5:06
63  Jan de MitsKluizen1.02.20M50   11.743  5:07
64  Christel OttStekene1.02.50V50   11.650  5:09
65  Jef van den HeuvelReet1.02.55M60   11.634  5:09
66  Simon HarinckTerneuzen1.03.12M40   11.582  5:11
67  Tommy VerwerSint Jansteen1.03.14M55   11.576  5:11
68  Jens de WildeHamme1.04.45Mse   11.305  5:18
69  Wim LockefeirNieuw-Namen1.04.48Mse   11.296  5:19
70  Patrick SteenbekeEeklo1.05.39M65   11.150  5:23
71  Nicole SerrarensSint Jansteen1.06.11V40   11.060  5:25
72  Wanda ZegersTerneuzen1.06.24V40   11.024  5:27
73  Peter KlärenTerneuzen1.06.54M50   10.942  5:29
74  Paul KlärenPhilippine1.06.55M50   10.939  5:29
75  Daan DielemanZaamslag1.07.10M65   10.898  5:30
76  Anniek de RijckSint Jansteen1.07.46V45   10.802  5:33
77  Ronnie de RoeckHeikant1.08.22M50   10.707  5:36
78  Kristof van de WieleOudenaarde1.08.25M40   10.699  5:36
79  Lucie de RoeckHeikant1.08.28V45   10.691  5:37
80  Gerrit LangenbergSluiskil1.08.30M60   10.686  5:37
81  Carlos de WillemackerAalter1.09.01M60   10.606  5:39
82  Luuk VerhagenHulst1.09.49Mse   10.485  5:43
83  Sofie VerdonckSint Jansteen1.09.51Vse   10.480  5:44
84  Ko de KoeijerZaamslag1.10.00M65   10.457  5:44
85  Romain BolssensKieldrecht1.10.39M55   10.361  5:47
86  Greet LangenbergSluiskil1.11.40V55   10.214  5:52
87  Antoine MathysDe Pinte1.11.57M65   10.174  5:54
88  Bjorn de BetuéSint Jansteen1.12.52Mse   10.046  5:58
89  Davy van de WalleSint Jansteen1.12.54Mse   10.041  5:59
90  William VerdonckBeveren-Waas1.13.22M70   9.977  6:01
91  Yves RooversWommelgem1.13.41M45   9.934  6:02
92  Rudy van de VeldeWachtebeke1.14.03M50   9.885  6:04
93  Linda van GoolSint-Kruis-Winkel1.14.05V45   9.881  6:04
94  Ann LommelenBeveren1.18.05V40   9.375  6:24
95  dhr. CoppietersStrombeek-Bever1.18.06M70   9.373  6:24
96  Mieke VangaeverEeklo1.19.21V40   9.225  6:30
97  Marianne de BaetsEeklo1.19.23V50   9.221  6:30
Mannen: 82 (84.54%) => M40=13 - M45=11 - M50=16 - M55=11 - M60=5 - M65=5 - M70=2 - Mse=19
Vrouwen: 15 (15.46%) => V35=1 - V40=4 - V45=4 - V50=2 - V55=1 - Vse=3

Overzicht Top3, winnares en aantal deelnemers in eerdere jaren

JaarWinnaarTijd2eTijd 3eTijdWinnaresTijd#
2016Thijs Verbeeck42:35Sander Post43:17Jente Samson44:08Martine Boute56:23131
2015Thijs Verbeeck43:01Edwin de la Ruelle43:55Filip van Goethem45:30Cathy Poppe55:2097
2014Sander Verminck42:47Edwin de la Ruelle43:23Rudi Willems44:32Ingrid Ijsebaert54:00148
2013Jordi van Guyse42:59Sander Verminck43:35Henk de Brauwer43:42Fransesco Degroote46:33127


Snelheid en tempo zijn berekend op de vermelde afstand. Bij een onjuiste afstand wijken deze uiteraard af!

Fouten melden via info@atletiekzeeland.nl Categorie fout? Mail dan geboortedatum. (geldt alleen voor Zeeuwen)

De server had 0.205 seconden nodig om deze lijst met 97 prestaties samen te stellen.

Terug naar boven

Vorige uitslagen
DatumWedstrijdPlaatsVereniging Hits
05-01-2019 Jeff Thuy MemorialHeikantTC Heikant0
06-01-2018 Jeff Thuy MemorialHeikantTC Heikant0
10-11-2018 Jeff Thuy MemorialHeikantTC Heikant0
11-11-2017 Jeff Thuy MemorialHeikantTC Heikant0
12-11-2016 Jeff Thuy MemorialHeikantTC Heikant225
02-01-2016 Jeff Thuy MemorialHeikantTC Heikant926
14-11-2015 Jeff Thuy MemorialHeikantTC Heikant618
04-01-2014 Jeff Thuy MemorialHeikantTC Heikant1092
15-11-2014 Jeff Thuy MemorialHeikantTC Heikant986
05-01-2013 Jeff Thuy MemorialHeikantTC Heikant1070
16-11-2013 Jeff Thuy MemorialHeikantTC Heikant1346
10-11-2012 Jeff Thuy MemorialHeikantTC Heikant2766
17-11-2007 Jeff Thuy MemorialHeikantSSP362

 
Recente Zeeuwse prestaties meer prestaties
17-03: Stevensloop Nijmegen (8)
10-03: Halve van Oostvoorne (5)
10-03: AttilaRun Tilburg (3)
10-03: Marato Barcelona (6)
09-03: Indoorwedstrijd Gent (1)
03-03: Marathon Tokyo (1)
10-02: 42e Groet uit Schoorl Run (7)
10-02: Two Rivers Marathon Zaltbommel (12)
03-02: Midwinter Marathon Apeldoorn (5)
27-01: Marathon Murcia (8)
Atletiek Zeeland © 2019